createdAt,value
2019-01-16T00:01:34.999Z,18.67
2019-01-16T00:06:46.248Z,19.43
2019-01-16T00:11:58.758Z,17.13
2019-01-16T00:16:57.647Z,16.40
2019-01-16T00:21:56.430Z,15.13
2019-01-16T00:27:08.616Z,15.33
2019-01-16T00:32:22.843Z,14.33
2019-01-16T00:37:19.108Z,15.43
2019-01-16T00:42:18.367Z,14.00
2019-01-16T00:47:20.307Z,12.63
2019-01-16T00:52:19.398Z,13.70
2019-01-16T00:57:15.625Z,13.03
2019-01-16T01:02:10.131Z,12.63
2019-01-16T01:07:09.213Z,15.33
2019-01-16T01:12:05.616Z,14.53
2019-01-16T01:17:04.595Z,14.03
2019-01-16T01:22:16.751Z,15.50
2019-01-16T01:27:18.949Z,19.87
2019-01-16T01:32:13.302Z,17.83
2019-01-16T01:37:09.691Z,16.63
2019-01-16T01:42:08.894Z,12.77
2019-01-16T01:47:05.113Z,22.23
2019-01-16T01:52:05.462Z,21.63
2019-01-16T01:57:04.514Z,17.17
2019-01-16T02:02:09.235Z,17.97
2019-01-16T02:07:20.454Z,17.97
2019-01-16T02:12:22.193Z,21.77
2019-01-16T02:17:31.875Z,15.40
2019-01-16T02:22:28.125Z,18.47
2019-01-16T02:27:24.529Z,16.77
2019-01-16T02:32:25.013Z,15.97
2019-01-16T02:37:21.237Z,15.50
2019-01-16T02:42:33.311Z,20.00
2019-01-16T02:47:35.225Z,20.00
2019-01-16T02:52:43.354Z,17.30
2019-01-16T02:57:39.592Z,20.67
2019-01-16T03:02:44.431Z,20.13
2019-01-16T03:07:40.764Z,21.60
2019-01-16T03:12:43.931Z,24.93
2019-01-16T03:17:38.294Z,25.03
2019-01-16T03:22:34.536Z,23.40
2019-01-16T03:27:46.795Z,29.03
2019-01-16T03:32:48.752Z,37.60
2019-01-16T03:37:47.991Z,33.83
2019-01-16T03:43:00.152Z,65.13
2019-01-16T03:48:03.330Z,32.10
2019-01-16T03:52:59.576Z,58.47
2019-01-16T03:58:11.850Z,55.53
2019-01-16T04:03:24.108Z,45.77
2019-01-16T04:08:38.336Z,64.40
2019-01-16T04:13:50.864Z,70.33
2019-01-16T04:19:03.248Z,47.17
2019-01-16T04:24:05.362Z,91.67
2019-01-16T04:29:04.461Z,100.17
2019-01-16T04:34:12.534Z,144.50
2019-01-16T04:39:08.469Z,54.33
2019-01-16T04:44:10.668Z,157.53
2019-01-16T04:49:09.665Z,247.73
2019-01-16T04:54:22.451Z,153.53
2019-01-16T04:59:21.454Z,261.73
2019-01-16T05:04:20.138Z,208.50
2019-01-16T05:09:20.202Z,59.50
2019-01-16T05:14:20.276Z,67.23
2019-01-16T05:19:25.114Z,63.47
2019-01-16T05:24:21.362Z,42.70
2019-01-16T05:29:33.578Z,63.93
2019-01-16T05:34:39.707Z,43.17
2019-01-16T05:39:35.951Z,62.43
2019-01-16T05:44:38.295Z,42.80
2019-01-16T05:49:46.959Z,197.77
2019-01-16T05:54:55.986Z,71.07
2019-01-16T05:59:52.221Z,139.80
2019-01-16T06:04:53.904Z,74.67
2019-01-16T06:10:08.236Z,35.87
2019-01-16T06:15:20.599Z,75.63
2019-01-16T06:20:25.997Z,40.67
2019-01-16T06:25:24.780Z,96.37
2019-01-16T06:30:21.006Z,96.17
2019-01-16T06:35:17.244Z,35.33
2019-01-16T06:40:13.816Z,64.77
2019-01-16T06:45:11.678Z,43.37
2019-01-16T06:50:16.629Z,39.93
2019-01-16T06:55:21.041Z,38.43
2019-01-16T07:00:26.706Z,41.60
2019-01-16T07:05:22.928Z,32.43
2019-01-16T07:10:34.139Z,30.53
2019-01-16T07:15:42.537Z,47.63
2019-01-16T07:20:38.844Z,54.03
2019-01-16T07:25:51.307Z,110.50
2019-01-16T07:30:50.346Z,64.80
2019-01-16T07:36:01.664Z,69.43
2019-01-16T07:41:13.526Z,90.23
2019-01-16T07:46:10.161Z,113.37
2019-01-16T07:51:12.755Z,43.90
2019-01-16T07:56:24.821Z,45.73
2019-01-16T08:01:29.704Z,38.67
2019-01-16T08:06:26.077Z,67.57
2019-01-16T08:11:37.015Z,44.03
2019-01-16T08:16:44.948Z,46.67
2019-01-16T08:21:40.395Z,113.77
2019-01-16T08:26:36.658Z,48.90
2019-01-16T08:31:33.158Z,39.73
2019-01-16T08:36:51.911Z,38.90
2019-01-16T08:41:54.468Z,40.00
2019-01-16T08:46:59.619Z,57.67
2019-01-16T08:52:08.077Z,36.87
2019-01-16T08:57:04.271Z,33.80
2019-01-16T09:02:18.655Z,37.93
2019-01-16T09:07:29.870Z,37.77
2019-01-16T09:12:27.592Z,34.90
2019-01-16T09:17:32.571Z,39.20
2019-01-16T09:22:29.642Z,36.53
2019-01-16T09:27:38.888Z,33.47
2019-01-16T09:32:51.285Z,33.60
2019-01-16T09:37:50.491Z,30.33
2019-01-16T09:42:59.270Z,29.13
2019-01-16T09:48:01.379Z,24.10
2019-01-16T09:53:00.326Z,28.13
2019-01-16T09:58:04.711Z,23.47
2019-01-16T10:03:18.772Z,25.40
2019-01-16T10:08:17.643Z,26.77
2019-01-16T10:13:19.012Z,25.63
2019-01-16T10:18:16.948Z,23.87
2019-01-16T10:23:14.838Z,28.83
2019-01-16T10:28:19.670Z,24.50
2019-01-16T10:33:16.010Z,25.97
2019-01-16T10:38:22.180Z,25.67
2019-01-16T10:43:35.879Z,23.93
2019-01-16T10:48:36.336Z,24.63
2019-01-16T10:53:39.330Z,27.03
2019-01-16T10:58:51.763Z,23.40
2019-01-16T11:03:53.632Z,22.83
2019-01-16T11:08:55.659Z,24.63
2019-01-16T11:13:55.080Z,22.83
2019-01-16T11:18:53.738Z,24.00
2019-01-16T11:23:58.572Z,24.93
2019-01-16T11:28:56.724Z,24.73
2019-01-16T11:33:58.766Z,22.87
2019-01-16T11:38:53.885Z,21.70
2019-01-16T11:44:02.329Z,23.50
2019-01-16T11:48:57.783Z,24.70
2019-01-16T11:53:54.153Z,24.13
2019-01-16T11:58:52.782Z,22.17
2019-01-16T12:03:52.153Z,20.00
2019-01-16T12:08:49.332Z,23.80
2019-01-16T12:13:46.126Z,24.10
2019-01-16T12:18:57.505Z,26.43
2019-01-16T12:24:09.569Z,28.67
2019-01-16T12:29:23.472Z,28.10
2019-01-16T12:34:22.680Z,27.33
2019-01-16T12:39:34.858Z,25.73
2019-01-16T12:44:31.989Z,27.57
2019-01-16T12:49:29.076Z,25.90
2019-01-16T12:54:23.599Z,23.43
2019-01-16T12:59:19.847Z,26.07
2019-01-16T13:04:31.061Z,29.80
2019-01-16T13:09:29.995Z,23.00
2019-01-16T13:14:44.525Z,19.97
2019-01-16T13:19:46.429Z,19.30
2019-01-16T13:24:42.716Z,18.57
2019-01-16T13:29:41.812Z,16.90
2019-01-16T13:34:43.725Z,20.33
2019-01-16T13:39:42.985Z,17.10
2019-01-16T13:44:39.524Z,18.23
2019-01-16T13:49:41.789Z,19.33
2019-01-16T13:54:38.147Z,20.80
2019-01-16T13:59:35.342Z,20.63
2019-01-16T14:04:31.834Z,23.33
2019-01-16T14:09:33.629Z,18.83
2019-01-16T14:14:41.824Z,20.70
2019-01-16T14:19:47.541Z,18.53
2019-01-16T14:24:41.882Z,22.53
2019-01-16T14:29:38.343Z,19.40
2019-01-16T14:34:40.066Z,19.10
2019-01-16T14:39:45.611Z,17.00
2019-01-16T14:44:57.467Z,15.77
2019-01-16T14:49:56.558Z,19.40
2019-01-16T14:55:07.899Z,16.87
2019-01-16T15:00:10.153Z,15.37
2019-01-16T15:05:14.815Z,16.27
2019-01-16T15:10:27.700Z,16.20
2019-01-16T15:15:25.007Z,14.40
2019-01-16T15:20:34.055Z,16.00
2019-01-16T15:25:45.338Z,13.30
2019-01-16T15:30:50.132Z,16.10
2019-01-16T15:35:50.777Z,17.27
2019-01-16T15:40:48.327Z,16.93
2019-01-16T15:45:59.077Z,15.50
2019-01-16T15:51:13.468Z,13.30
2019-01-16T15:56:27.880Z,15.10
2019-01-16T16:01:38.893Z,17.83
2019-01-16T16:06:39.599Z,14.33
2019-01-16T16:11:55.770Z,19.33
2019-01-16T16:16:53.361Z,13.97
2019-01-16T16:22:01.139Z,22.50
2019-01-16T16:27:07.740Z,15.07
2019-01-16T16:32:08.044Z,14.50
2019-01-16T16:37:31.086Z,15.67
2019-01-16T16:42:44.676Z,16.93
2019-01-16T16:47:58.269Z,16.37
2019-01-16T16:53:13.932Z,19.50
2019-01-16T16:58:15.056Z,18.47
2019-01-16T17:03:17.401Z,19.43
2019-01-16T17:08:50.557Z,23.80
2019-01-16T17:13:48.936Z,20.03
2019-01-16T17:18:52.641Z,17.80
2019-01-16T17:23:57.381Z,20.60
2019-01-16T17:29:02.534Z,18.03
2019-01-16T17:34:01.177Z,18.03
2019-01-16T17:39:12.051Z,18.30
2019-01-16T17:44:17.428Z,19.10
2019-01-16T17:49:16.342Z,20.07
2019-01-16T17:54:28.890Z,23.33
2019-01-16T17:59:32.229Z,24.00
2019-01-16T18:04:28.458Z,19.40
2019-01-16T18:09:24.682Z,26.87
2019-01-16T18:14:23.407Z,22.80
2019-01-16T18:19:23.250Z,21.30
2019-01-16T18:24:31.155Z,21.77
2019-01-16T18:29:33.113Z,20.87
2019-01-16T18:34:27.482Z,18.87
2019-01-16T18:39:23.766Z,23.60
2019-01-16T18:44:31.952Z,25.17
2019-01-16T18:49:30.655Z,29.03
2019-01-16T18:54:29.696Z,33.00
2019-01-16T18:59:40.986Z,23.17
2019-01-16T19:04:52.006Z,24.93
2019-01-16T19:10:06.056Z,30.40
2019-01-16T19:15:14.453Z,28.87
2019-01-16T19:20:16.950Z,30.03
2019-01-16T19:25:22.078Z,30.30
2019-01-16T19:30:33.974Z,32.03
2019-01-16T19:35:31.360Z,30.30
2019-01-16T19:40:43.618Z,27.07
2019-01-16T19:45:56.055Z,27.47
2019-01-16T19:51:07.297Z,31.33
2019-01-16T19:56:01.669Z,31.13
2019-01-16T20:00:57.956Z,28.87
2019-01-16T20:06:10.592Z,27.77
2019-01-16T20:11:09.933Z,27.33
2019-01-16T20:16:12.388Z,29.13
2019-01-16T20:21:24.775Z,29.43
2019-01-16T20:26:23.889Z,31.63
2019-01-16T20:31:20.187Z,28.47
2019-01-16T20:36:25.173Z,31.53
2019-01-16T20:41:30.109Z,29.43
2019-01-16T20:46:29.365Z,31.20
2019-01-16T20:51:25.586Z,31.30
2019-01-16T20:56:24.762Z,33.37
2019-01-16T21:01:23.844Z,34.30
2019-01-16T21:06:20.894Z,35.53
2019-01-16T21:11:19.819Z,36.20
2019-01-16T21:16:21.984Z,32.33
2019-01-16T21:21:18.370Z,38.47
2019-01-16T21:26:29.336Z,32.23
2019-01-16T21:31:25.610Z,33.60
2019-01-16T21:36:33.887Z,30.30
2019-01-16T21:41:34.160Z,32.47
2019-01-16T21:46:33.407Z,27.87
2019-01-16T21:51:44.631Z,30.13
2019-01-16T21:56:57.386Z,32.00
2019-01-16T22:01:53.619Z,28.60
2019-01-16T22:06:49.932Z,33.63
2019-01-16T22:12:04.127Z,29.00
2019-01-16T22:17:00.371Z,30.70
2019-01-16T22:21:56.599Z,33.07
2019-01-16T22:26:55.627Z,32.03
2019-01-16T22:31:54.714Z,31.57
2019-01-16T22:37:06.218Z,27.83
2019-01-16T22:42:02.435Z,30.67
2019-01-16T22:47:01.571Z,29.30
2019-01-16T22:51:57.808Z,33.83
2019-01-16T22:56:59.730Z,28.13
2019-01-16T23:01:56.019Z,27.07
2019-01-16T23:06:52.321Z,28.23
2019-01-16T23:11:51.577Z,24.43
2019-01-16T23:16:47.813Z,28.90
2019-01-16T23:21:44.073Z,27.37
2019-01-16T23:26:47.339Z,26.17
2019-01-16T23:31:52.445Z,25.67
2019-01-16T23:36:49.214Z,24.33
2019-01-16T23:41:51.168Z,24.73
2019-01-16T23:46:56.603Z,23.87
2019-01-16T23:51:52.947Z,19.17
2019-01-16T23:56:51.602Z,17.30
